Minerva — CSXI4 — position and weather

sailwx.info

Track history (hours):
 
Tides and Currents Weather Stations Pressure Air Temp Water Temp Dewpoint Dewpoint Depression Visibility Wind Speed Wind Dir Waves Ship Positions

Minerva

Last reported at 2015-May-30 14:33 UTC. Time now 2015-May-30 14:40 UTC.
Position N 37°57' W 008°53'.

Length 11 m; draft 1.5 m.

Type: Pilot. MMSI: 263700025.

Date/timePositionNaut miles runAvg speedWind from/ knotsBaromVisibWave heightAir tempDewpointWater temp
2015-May-30 14:33N 37°57' W 008°53'3 3.3
2015-May-30 13:33N 37°54' W 008°51'2 1.7
2015-May-30 12:33N 37°56' W 008°51'0 0.0
2015-May-29 16:33N 37°56' W 008°51'2 1.8
2015-May-29 15:33N 37°57' W 008°52'2 1.7
2015-May-29 14:33N 37°56' W 008°51'  
2015-May-26 09:33N 37°57' W 008°52'0 0.0
2015-May-25 14:11N 37°57' W 008°52'  
2015-May-22 13:33N 37°57' W 008°53'2 0.7
2015-May-22 10:33N 37°55' W 008°53'2 1.9
2015-May-22 09:33N 37°55' W 008°51'2 2.0
2015-May-22 08:33N 37°57' W 008°52'1 1.4
2015-May-22 07:33N 37°56' W 008°52'1 0.8
2015-May-22 06:33N 37°56' W 008°51'1 0.4
2015-May-22 03:22N 37°57' W 008°52'1 1.5
2015-May-22 02:33N 37°57' W 008°53'3 1.4
2015-May-22 00:33N 37°55' W 008°51'2 0.3
2015-May-21 15:33N 37°57' W 008°53'5 0.5
2015-May-21 06:33N 37°52' W 008°52'4 3.5
2015-May-21 05:24N 37°56' W 008°51'0 0.3
2015-May-21 04:33N 37°56' W 008°51'1 0.3
2015-May-21 01:31N 37°57' W 008°52'1 1.2
2015-May-21 00:33N 37°57' W 008°53'1 0.9
2015-May-20 23:13N 37°57' W 008°52'1 0.3
2015-May-20 19:33N 37°56' W 008°53'2 1.9
2015-May-20 18:33N 37°56' W 008°51'1 0.3
2015-May-20 15:33N 37°55' W 008°50'  
Track history (hours):
 
Tides and Currents Weather Stations Pressure Air Temp Water Temp Dewpoint Dewpoint Depression Visibility Wind Speed Wind Dir Waves Ship Positions

Minerva

Last reported at 2015-May-30 14:33 UTC. Time now 2015-May-30 14:40 UTC.
Position N 37°57' W 008°53'.

Length 11 m; draft 1.5 m.

Type: Pilot. MMSI: 263700025.

Date/timePositionNaut miles runAvg speedWind from/ knotsBaromVisibWave heightAir tempDewpointWater temp
2015-May-30 14:33N 37°57' W 008°53'3 3.3
2015-May-30 13:33N 37°54' W 008°51'2 1.7
2015-May-30 12:33N 37°56' W 008°51'0 0.0
2015-May-29 16:33N 37°56' W 008°51'2 1.8
2015-May-29 15:33N 37°57' W 008°52'2 1.7
2015-May-29 14:33N 37°56' W 008°51'  
2015-May-26 09:33N 37°57' W 008°52'0 0.0
2015-May-25 14:11N 37°57' W 008°52'  
2015-May-22 13:33N 37°57' W 008°53'2 0.7
2015-May-22 10:33N 37°55' W 008°53'2 1.9
2015-May-22 09:33N 37°55' W 008°51'2 2.0
2015-May-22 08:33N 37°57' W 008°52'1 1.4
2015-May-22 07:33N 37°56' W 008°52'1 0.8
2015-May-22 06:33N 37°56' W 008°51'1 0.4
2015-May-22 03:22N 37°57' W 008°52'1 1.5
2015-May-22 02:33N 37°57' W 008°53'3 1.4
2015-May-22 00:33N 37°55' W 008°51'2 0.3
2015-May-21 15:33N 37°57' W 008°53'5 0.5
2015-May-21 06:33N 37°52' W 008°52'4 3.5
2015-May-21 05:24N 37°56' W 008°51'0 0.3
2015-May-21 04:33N 37°56' W 008°51'1 0.3
2015-May-21 01:31N 37°57' W 008°52'1 1.2
2015-May-21 00:33N 37°57' W 008°53'1 0.9
2015-May-20 23:13N 37°57' W 008°52'1 0.3
2015-May-20 19:33N 37°56' W 008°53'2 1.9
2015-May-20 18:33N 37°56' W 008°51'1 0.3
2015-May-20 15:33N 37°55' W 008°50'  

Dump ship's entire track history